Time;durP1;ratioP1;P1;durP2;ratioP2;P2;SDS_P1;SDS_P2;PMS_P1;PMS_P2;Temp;Humidity;BMP_temperature;BMP_pressure;BME280_temperature;BME280_humidity;BME280_pressure;Samples;Min_cycle;Max_cycle;Signal;HPM_P1;HPM_P2
2021/05/27 00:01:22;;;;;;;10.00;4.90;;;;;;;10.73;82.85;101464.81;5136481;27;20035;-40
2021/05/27 00:03:47;;;;;;;12.60;5.60;;;;;;;10.71;83.00;101472.34;5137102;27;20023;-40
2021/05/27 00:06:13;;;;;;;13.82;5.10;;;;;;;10.69;83.20;101466.31;5136450;27;20023;-40
2021/05/27 00:08:38;;;;;;;11.20;5.47;;;;;;;10.72;82.47;101465.88;5135941;27;20038;-40
2021/05/27 00:11:03;;;;;;;13.40;6.20;;;;;;;10.73;82.55;101474.81;5136057;27;20043;-40
2021/05/27 00:13:29;;;;;;;14.00;6.07;;;;;;;10.71;82.65;101474.22;5136254;27;20106;-40
2021/05/27 00:15:54;;;;;;;13.33;5.70;;;;;;;10.72;82.54;101470.47;5136560;27;20062;-40
2021/05/27 00:18:20;;;;;;;13.87;6.33;;;;;;;10.71;82.25;101477.75;5136160;27;20031;-40
2021/05/27 00:20:45;;;;;;;13.02;6.38;;;;;;;10.70;82.45;101478.81;5136719;27;20355;-40
2021/05/27 00:23:10;;;;;;;11.77;6.17;;;;;;;10.72;81.94;101475.88;5136081;27;20023;-40
2021/05/27 00:25:36;;;;;;;11.80;7.00;;;;;;;10.69;82.06;101485.25;5136802;27;20328;-40
2021/05/27 00:28:01;;;;;;;14.30;7.43;;;;;;;10.69;82.15;101487.13;5135674;27;20110;-40
2021/05/27 00:30:27;;;;;;;13.70;6.97;;;;;;;10.69;82.56;101490.66;5134618;27;20074;-40
2021/05/27 00:32:52;;;;;;;19.42;8.15;;;;;;;10.67;82.04;101481.94;5135861;27;20031;-40
2021/05/27 00:35:18;;;;;;;14.90;7.90;;;;;;;10.68;81.91;101486.28;5136115;27;20375;-40
2021/05/27 00:37:43;;;;;;;11.97;7.73;;;;;;;10.69;81.99;101487.97;5136044;27;20026;-40
2021/05/27 00:40:13;;;;;;;13.25;7.05;;;;;;;10.69;81.58;101489.84;5136250;27;20109;-40
2021/05/27 00:42:39;;;;;;;15.70;8.20;;;;;;;10.68;80.64;101488.16;5135954;27;20031;-40
2021/05/27 00:45:06;;;;;;;16.55;8.55;;;;;;;10.64;80.11;101492.34;5136478;27;20031;-40
2021/05/27 00:47:32;;;;;;;18.77;7.72;;;;;;;10.61;80.12;101492.78;5135191;27;20475;-40
2021/05/27 00:49:57;;;;;;;11.77;6.50;;;;;;;10.59;79.77;101484.91;5136002;27;20030;-40
2021/05/27 00:52:23;;;;;;;15.10;6.83;;;;;;;10.57;79.46;101487.81;5135962;27;20023;-40
2021/05/27 00:54:49;;;;;;;9.38;5.97;;;;;;;10.55;79.73;101494.47;5136605;27;20043;-40
2021/05/27 00:57:27;;;;;;;11.63;6.57;;;;;;;10.50;79.52;101487.00;5135072;27;20471;-40
2021/05/27 00:59:52;;;;;;;12.75;6.57;;;;;;;10.48;79.20;101497.19;5135722;27;20051;-40
2021/05/27 01:02:18;;;;;;;10.63;6.50;;;;;;;10.49;79.53;101489.91;5135306;27;20029;-40
2021/05/27 01:04:43;;;;;;;11.03;6.03;;;;;;;10.47;79.21;101487.44;5135890;27;20059;-39
2021/05/27 01:07:08;;;;;;;13.23;7.23;;;;;;;10.45;79.31;101489.53;5135234;27;20038;-40
2021/05/27 01:09:34;;;;;;;13.73;6.70;;;;;;;10.46;79.66;101496.59;5134108;27;20020;-39
2021/05/27 01:11:59;;;;;;;11.60;7.30;;;;;;;10.45;79.50;101500.34;5135035;27;20019;-39
2021/05/27 01:17:08;;;;;;;12.20;7.00;;;;;;;10.46;79.15;101503.88;5135089;27;20116;-39
2021/05/27 01:19:34;;;;;;;14.97;6.20;;;;;;;10.44;79.44;101497.84;5134736;27;20390;-39
2021/05/27 01:21:59;;;;;;;11.60;7.03;;;;;;;10.45;79.49;101500.34;5134515;27;20026;-39
2021/05/27 01:24:24;;;;;;;12.27;6.80;;;;;;;10.45;79.14;101513.03;5135189;27;20374;-39
2021/05/27 01:26:50;;;;;;;14.47;6.90;;;;;;;10.45;79.35;101510.34;5134603;27;20080;-39
2021/05/27 01:29:15;;;;;;;13.37;8.40;;;;;;;10.42;79.66;101521.56;5134441;27;20471;-39
2021/05/27 01:31:41;;;;;;;13.52;8.70;;;;;;;10.43;79.27;101517.81;5135279;27;20308;-39
2021/05/27 01:34:09;;;;;;;14.87;8.17;;;;;;;10.41;79.10;101523.44;5134753;27;20027;-39
2021/05/27 01:36:35;;;;;;;16.70;8.15;;;;;;;10.37;79.47;101519.50;5134650;27;20470;-39
2021/05/27 01:39:00;;;;;;;13.93;8.20;;;;;;;10.41;79.00;101520.75;5134565;27;20034;-39
2021/05/27 01:41:25;;;;;;;12.37;8.00;;;;;;;10.38;78.28;101521.16;5134923;27;20024;-39
2021/05/27 01:43:50;;;;;;;14.20;7.57;;;;;;;10.40;77.73;101524.50;5134270;27;20039;-39
2021/05/27 01:46:16;;;;;;;13.57;8.30;;;;;;;10.38;77.70;101521.16;5134836;27;20033;-39
2021/05/27 01:48:42;;;;;;;15.13;8.13;;;;;;;10.36;78.25;101525.97;5134408;27;20023;-39
2021/05/27 01:51:07;;;;;;;15.17;8.73;;;;;;;10.32;77.85;101520.13;5134556;27;20386;-39
2021/05/27 01:53:32;;;;;;;13.40;7.90;;;;;;;10.35;77.97;101524.31;5134635;27;20136;-39
2021/05/27 01:55:58;;;;;;;14.20;8.77;;;;;;;10.34;76.96;101528.03;5134512;27;20245;-39
2021/05/27 01:58:23;;;;;;;14.53;8.60;;;;;;;10.35;76.97;101529.72;5134153;27;20051;-39
2021/05/27 02:00:49;;;;;;;14.73;8.43;;;;;;;10.36;77.63;101534.06;5134687;27;20023;-39
2021/05/27 02:03:14;;;;;;;;;;;;;;;10.41;77.18;101534.25;5135033;27;20027;-39
2021/05/27 02:05:40;;;;;;;14.00;8.27;;;;;;;10.33;76.88;101534.47;5134387;27;19919;-39
2021/05/27 02:08:06;;;;;;;13.00;8.47;;;;;;;10.32;76.88;101536.34;5134299;28;20261;-39
2021/05/27 02:10:31;;;;;;;15.18;8.88;;;;;;;10.30;76.98;101537.63;5134740;27;20027;-40
2021/05/27 02:12:56;;;;;;;13.80;9.10;;;;;;;10.25;76.11;101538.25;5134226;28;20049;-39
2021/05/27 02:15:22;;;;;;;14.67;7.87;;;;;;;10.27;76.18;101546.16;5134500;28;20257;-39
2021/05/27 02:17:47;;;;;;;13.70;8.23;;;;;;;10.25;75.68;101543.66;5134174;28;20442;-39
2021/05/27 02:20:13;;;;;;;12.20;8.30;;;;;;;10.23;75.77;101531.38;5134230;28;20023;-39
2021/05/27 02:22:38;;;;;;;15.73;9.32;;;;;;;10.23;76.05;101539.47;5134177;28;20425;-39
2021/05/27 02:25:05;;;;;;;15.97;9.20;;;;;;;10.21;76.44;101542.41;5134485;28;20027;-39
2021/05/27 02:27:31;;;;;;;12.90;8.95;;;;;;;10.20;76.25;101539.88;5133740;27;20027;-40
2021/05/27 02:29:56;;;;;;;15.43;9.63;;;;;;;10.19;76.35;101551.75;5133094;28;20027;-40
2021/05/27 02:32:22;;;;;;;18.50;9.50;;;;;;;10.19;77.11;101554.44;5134287;27;20031;-39
2021/05/27 02:34:47;;;;;;;17.13;8.80;;;;;;;10.18;77.27;101555.50;5138478;27;20340;-40
2021/05/27 02:37:12;;;;;;;16.07;8.47;;;;;;;10.21;77.47;101549.69;5138466;27;20122;-39
2021/05/27 02:39:38;;;;;;;18.87;8.90;;;;;;;10.18;77.17;101555.50;5138993;27;20688;-39
2021/05/27 02:42:04;;;;;;;17.93;8.77;;;;;;;10.18;76.92;101555.50;5137797;27;20098;-39
2021/05/27 02:44:30;;;;;;;17.40;8.25;;;;;;;10.18;77.45;101560.91;5138779;27;20027;-39
2021/05/27 02:46:57;;;;;;;15.77;8.53;;;;;;;10.15;77.67;101558.59;5137939;27;20390;-40
2021/05/27 02:49:22;;;;;;;17.50;8.65;;;;;;;10.12;77.46;101561.75;5138109;27;20031;-39
2021/05/27 02:51:48;;;;;;;16.02;8.35;;;;;;;10.13;77.75;101561.53;5137570;27;20095;-39
2021/05/27 02:54:15;;;;;;;16.93;8.43;;;;;;;10.10;77.53;101567.34;5138102;27;20019;-39
2021/05/27 02:56:40;;;;;;;18.48;8.82;;;;;;;10.12;77.85;101565.28;5137494;27;20023;-39
2021/05/27 02:59:06;;;;;;;15.50;8.60;;;;;;;10.11;78.00;101563.63;5137715;27;20100;-39
2021/05/27 03:01:31;;;;;;;17.30;9.10;;;;;;;10.09;77.80;101571.09;5137713;27;20367;-39
2021/05/27 03:03:56;;;;;;;16.77;8.23;;;;;;;10.09;77.93;101564.84;5138198;27;20023;-39
2021/05/27 03:06:22;;;;;;;16.37;8.23;;;;;;;10.05;77.96;101568.00;5137313;27;20019;-39
2021/05/27 03:08:47;;;;;;;11.37;7.77;;;;;;;10.05;77.71;101561.75;5137992;27;20030;-39
2021/05/27 03:11:13;;;;;;;20.70;9.30;;;;;;;10.04;78.48;101571.72;5138312;27;20029;-39
2021/05/27 03:13:39;;;;;;;18.40;9.07;;;;;;;10.09;78.29;101570.25;5137657;27;20066;-39
2021/05/27 03:16:05;;;;;;;17.23;9.35;;;;;;;10.09;78.02;101572.97;5137165;27;20027;-39
2021/05/27 03:18:30;;;;;;;18.80;8.30;;;;;;;10.12;78.19;101580.66;5137324;27;20122;-39
2021/05/27 03:20:57;;;;;;;12.75;7.93;;;;;;;10.10;78.62;101571.91;5137351;27;20257;-40
2021/05/27 03:23:23;;;;;;;17.58;8.88;;;;;;;10.07;78.66;101574.00;5137276;27;20072;-39
2021/05/27 03:25:48;;;;;;;19.43;8.80;;;;;;;10.05;78.52;101577.94;5137640;27;20027;-40
2021/05/27 03:28:14;;;;;;;18.35;9.10;;;;;;;10.04;78.83;101579.81;5137384;27;20412;-40
2021/05/27 03:30:39;;;;;;;17.30;9.17;;;;;;;9.96;79.17;101574.66;5137269;27;20035;-39
2021/05/27 03:33:05;;;;;;;16.57;8.43;;;;;;;9.96;78.51;101584.63;5137847;27;20027;-40
2021/05/27 03:35:30;;;;;;;19.70;9.07;;;;;;;9.96;79.25;101585.47;5137303;27;20034;-39
2021/05/27 03:37:55;;;;;;;25.13;9.07;;;;;;;9.97;79.38;101578.19;5136659;27;20033;-39
2021/05/27 03:40:21;;;;;;;17.70;9.20;;;;;;;9.95;79.30;101586.47;5136801;27;20030;-40
2021/05/27 03:42:52;;;;;;;21.17;9.43;;;;;;;9.95;79.28;101586.47;5137423;27;20019;-39
2021/05/27 03:45:20;;;;;;;20.60;8.82;;;;;;;9.90;79.35;101583.56;5136572;27;20027;-40
2021/05/27 03:47:46;;;;;;;19.50;10.95;;;;;;;9.86;79.24;101589.59;5136726;27;20051;-40
2021/05/27 03:50:14;;;;;;;21.75;9.85;;;;;;;9.80;80.06;101589.41;5136994;27;20031;-40
2021/05/27 03:52:40;;;;;;;20.55;9.55;;;;;;;9.86;79.74;101587.75;5136396;27;20019;-40
2021/05/27 03:55:07;;;;;;;24.45;9.35;;;;;;;9.83;79.88;101588.16;5137241;27;20455;-40
2021/05/27 03:57:32;;;;;;;15.93;9.02;;;;;;;9.87;79.80;101594.81;5136519;27;20054;-40
2021/05/27 04:02:45;;;;;;;12.95;8.65;;;;;;;9.80;79.74;101589.41;5136267;27;20272;-40
2021/05/27 04:07:56;;;;;;;15.65;8.85;;;;;;;9.82;80.67;101585.69;5136706;27;20034;-40
2021/05/27 04:10:22;;;;;;;14.00;8.52;;;;;;;9.80;79.72;101591.28;5136330;27;20027;-40
2021/05/27 04:12:48;;;;;;;16.33;8.65;;;;;;;9.80;80.22;101594.78;5136297;27;20470;-40
2021/05/27 04:15:21;;;;;;;15.57;9.02;;;;;;;9.79;80.34;101600.41;5136554;27;20027;-40
2021/05/27 04:17:57;;;;;;;15.30;9.32;;;;;;;9.82;80.52;101593.78;5136462;27;20104;-40
2021/05/27 04:20:25;;;;;;;17.27;9.50;;;;;;;9.77;80.56;101591.69;5137021;27;20027;-40
2021/05/27 04:22:51;;;;;;;16.33;9.50;;;;;;;9.78;80.02;101594.19;5136056;27;20126;-40
2021/05/27 04:25:17;;;;;;;;;;;;;;;9.87;80.14;101600.22;5137061;27;20027;-40
2021/05/27 04:27:43;;;;;;;16.55;10.55;;;;;;;9.77;81.11;101603.34;5136273;27;19912;-40
2021/05/27 04:30:13;;;;;;;;;;;;;;;9.85;79.84;101596.88;5136679;27;20042;-40
2021/05/27 04:35:42;;;;;;;16.85;9.13;;;;;;;9.68;81.06;101596.47;5135932;27;20043;-39
2021/05/27 04:38:10;;;;;;;20.00;9.45;;;;;;;9.66;81.13;101601.25;5135567;27;20379;-40
2021/05/27 04:40:37;;;;;;;21.85;9.27;;;;;;;9.64;81.63;101594.38;5136112;27;20031;-40
2021/05/27 04:43:03;;;;;;;21.10;10.32;;;;;;;9.66;81.61;101597.69;5136179;27;20035;-40
2021/05/27 04:45:29;;;;;;;17.70;9.02;;;;;;;9.67;81.86;101599.38;5136500;27;20027;-40
2021/05/27 04:47:54;;;;;;;18.05;8.80;;;;;;;9.63;81.51;101596.25;5135647;27;20534;-40
2021/05/27 04:50:21;;;;;;;15.45;8.73;;;;;;;9.64;82.85;101605.19;5135528;27;20106;-40
2021/05/27 04:52:49;;;;;;;24.00;9.05;;;;;;;9.61;83.15;101598.31;5135147;27;20471;-40
2021/05/27 04:55:15;;;;;;;20.13;8.75;;;;;;;9.62;82.35;101610.81;5135462;27;20050;-41
2021/05/27 04:57:40;;;;;;;15.32;8.38;;;;;;;9.61;83.14;101616.38;5134962;27;20450;-40
2021/05/27 05:00:10;;;;;;;20.73;9.68;;;;;;;9.54;83.61;101617.22;5135937;27;20053;-40
2021/05/27 05:02:36;;;;;;;18.50;9.38;;;;;;;9.57;83.10;101609.75;5135077;27;20114;-40
2021/05/27 05:05:01;;;;;;;22.90;9.65;;;;;;;9.59;83.04;101621.19;5134941;27;20214;-40
2021/05/27 05:07:27;;;;;;;17.65;9.18;;;;;;;9.52;83.04;101608.50;5135042;27;20457;-40
2021/05/27 05:09:52;;;;;;;18.17;9.60;;;;;;;9.62;83.59;101628.88;5134768;27;20066;-40
2021/05/27 05:12:17;;;;;;;19.63;9.67;;;;;;;9.61;83.65;101619.09;5135240;27;20026;-40
2021/05/27 05:14:43;;;;;;;17.20;8.57;;;;;;;9.64;83.09;101632.19;5135173;27;20375;-40
2021/05/27 05:17:08;;;;;;;16.55;9.45;;;;;;;9.61;83.48;101622.63;5134846;27;20050;-40
2021/05/27 05:19:34;;;;;;;18.33;8.97;;;;;;;9.63;83.40;101625.13;5135474;27;20031;-40
2021/05/27 05:21:59;;;;;;;20.63;8.90;;;;;;;9.64;82.61;101626.78;5134506;27;20027;-40
2021/05/27 05:24:25;;;;;;;20.67;9.40;;;;;;;9.63;82.87;101630.53;5134847;27;20084;-40
2021/05/27 05:26:51;;;;;;;16.65;7.75;;;;;;;9.65;83.34;101629.28;5135374;27;20034;-40
2021/05/27 05:29:16;;;;;;;18.85;7.70;;;;;;;9.64;83.34;101632.19;5135372;27;20359;-40
2021/05/27 05:31:42;;;;;;;16.70;7.25;;;;;;;9.65;83.22;101636.56;5134774;27;20174;-41
2021/05/27 05:34:07;;;;;;;16.63;6.63;;;;;;;9.65;83.17;101633.84;5135125;27;20019;-40
2021/05/27 05:36:32;;;;;;;20.53;6.97;;;;;;;9.63;83.62;101628.66;5135001;27;20102;-40
2021/05/27 05:38:58;;;;;;;15.23;7.40;;;;;;;9.68;83.54;101633.44;5134551;27;20035;-40
2021/05/27 05:41:23;;;;;;;14.27;7.47;;;;;;;9.65;82.81;101633.84;5134678;27;20034;-40
2021/05/27 05:43:48;;;;;;;22.20;8.27;;;;;;;9.64;82.49;101627.63;5134276;27;20019;-40
2021/05/27 05:46:14;;;;;;;13.50;7.10;;;;;;;9.61;83.24;101633.41;5134862;27;20018;-41
2021/05/27 05:48:39;;;;;;;14.43;7.77;;;;;;;9.62;83.62;101634.28;5134447;27;20027;-40
2021/05/27 05:51:07;;;;;;;19.17;9.20;;;;;;;9.62;83.11;101643.22;5134252;27;20030;-40
2021/05/27 05:53:33;;;;;;;14.80;7.32;;;;;;;9.64;84.23;101643.00;5134372;27;20110;-40
2021/05/27 05:55:59;;;;;;;;;;;;;;;9.73;83.02;101653.41;5135497;27;20164;-41
2021/05/27 05:58:25;;;;;;;14.52;7.15;;;;;;;9.68;83.27;101642.38;5134243;27;20366;-41
2021/05/27 06:00:52;;;;;;;14.77;8.07;;;;;;;9.69;83.29;101654.00;5134644;27;20031;-39
2021/05/27 06:03:18;;;;;;;16.38;8.48;;;;;;;9.67;83.54;101653.41;5133996;27;20449;-40
2021/05/27 06:05:43;;;;;;;15.30;8.30;;;;;;;9.69;83.51;101654.84;5134349;27;20110;-40
2021/05/27 06:08:09;;;;;;;23.00;8.80;;;;;;;9.68;83.10;101657.75;5134013;27;20149;-41
2021/05/27 06:10:34;;;;;;;18.20;8.27;;;;;;;9.67;83.09;101656.94;5134447;27;20026;-40
2021/05/27 06:13:00;;;;;;;24.00;8.70;;;;;;;9.67;83.41;101658.81;5134498;28;20054;-41
2021/05/27 06:15:27;;;;;;;16.45;8.23;;;;;;;9.67;83.72;101659.63;5134582;28;20484;-41
2021/05/27 06:17:52;;;;;;;15.18;7.50;;;;;;;9.68;83.97;101657.75;5133912;28;20027;-40
2021/05/27 06:20:20;;;;;;;20.92;8.60;;;;;;;9.73;84.18;101664.19;5133906;28;20149;-40
2021/05/27 06:22:47;;;;;;;14.07;7.43;;;;;;;9.70;83.94;101658.38;5134652;28;20412;-40
2021/05/27 06:25:13;;;;;;;18.52;7.78;;;;;;;9.72;83.25;101662.53;5134212;28;20043;-40
2021/05/27 06:27:38;;;;;;;;;;;;;;;9.80;83.27;101661.50;5134859;28;20034;-40
2021/05/27 06:30:05;;;;;;;17.35;7.65;;;;;;;9.73;83.76;101666.06;5134591;28;20304;-41
2021/05/27 06:32:34;;;;;;;14.93;7.22;;;;;;;9.75;83.90;101670.22;5134587;28;20107;-41
2021/05/27 06:34:59;;;;;;;15.18;7.28;;;;;;;9.77;83.51;101670.03;5134536;28;20019;-42
2021/05/27 06:37:25;;;;;;;17.67;7.83;;;;;;;9.76;83.17;101668.34;5133715;28;20036;-40
2021/05/27 06:39:50;;;;;;;14.07;7.10;;;;;;;9.74;83.62;101670.44;5132731;28;20050;-40
2021/05/27 06:42:16;;;;;;;12.90;6.57;;;;;;;9.75;83.39;101677.50;5133619;28;20027;-40
2021/05/27 06:44:41;;;;;;;14.10;7.00;;;;;;;9.75;83.75;101680.19;5134279;27;20523;-40
2021/05/27 06:47:06;;;;;;;15.90;6.90;;;;;;;9.74;84.50;101682.06;5133698;28;20030;-40
2021/05/27 06:49:32;;;;;;;18.83;7.47;;;;;;;9.73;84.05;101679.56;5134658;28;20035;-41
2021/05/27 06:51:57;;;;;;;14.50;6.70;;;;;;;9.73;84.57;101684.97;5133835;28;20030;-40
2021/05/27 06:54:23;;;;;;;15.67;7.00;;;;;;;9.73;84.18;101676.88;5133897;28;20050;-40
2021/05/27 06:56:52;;;;;;;15.52;6.75;;;;;;;9.79;84.42;101684.97;5133791;28;20023;-40
2021/05/27 06:59:17;;;;;;;14.43;7.28;;;;;;;9.79;84.17;101684.97;5134663;28;20363;-39
2021/05/27 07:01:43;;;;;;;16.73;7.40;;;;;;;9.83;84.11;101689.97;5132763;27;20041;-40
2021/05/27 07:04:08;;;;;;;11.88;6.38;;;;;;;9.82;84.37;101686.44;5133811;28;20109;-40
2021/05/27 07:06:33;;;;;;;14.30;6.80;;;;;;;9.84;84.79;101689.78;5134344;28;20028;-41
2021/05/27 07:08:59;;;;;;;14.87;6.27;;;;;;;9.82;84.26;101694.56;5133651;28;20023;-41
2021/05/27 07:11:24;;;;;;;12.47;6.67;;;;;;;9.78;84.21;101693.28;5134022;28;20034;-39
2021/05/27 07:13:49;;;;;;;16.53;6.77;;;;;;;9.78;85.02;101693.28;5133977;28;20408;-40
2021/05/27 07:16:15;;;;;;;11.20;6.20;;;;;;;9.79;84.49;101701.19;5133991;28;20035;-40
2021/05/27 07:18:40;;;;;;;12.40;6.27;;;;;;;9.79;84.42;101700.34;5133652;27;20427;-40
2021/05/27 07:21:06;;;;;;;17.33;6.63;;;;;;;9.79;84.51;101695.78;5137646;27;20031;-39
2021/05/27 07:23:31;;;;;;;14.50;6.55;;;;;;;9.81;84.46;101709.09;5137287;27;20031;-40
2021/05/27 07:25:57;;;;;;;17.00;6.93;;;;;;;9.81;84.96;101701.00;5137305;27;20028;-39
2021/05/27 07:28:22;;;;;;;15.32;6.72;;;;;;;9.81;85.13;101701.00;5137129;27;20451;-40
2021/05/27 07:30:48;;;;;;;14.30;6.95;;;;;;;9.81;85.58;101698.31;5136136;27;20043;-40
2021/05/27 07:33:14;;;;;;;13.32;6.75;;;;;;;9.86;84.80;101698.53;5137369;27;20027;-39
2021/05/27 07:35:39;;;;;;;15.57;7.77;;;;;;;9.95;85.22;101705.38;5137179;27;20034;-40
2021/05/27 07:38:04;;;;;;;14.27;7.50;;;;;;;10.00;84.73;101716.41;5136612;27;20027;-40
2021/05/27 07:40:31;;;;;;;13.40;7.13;;;;;;;10.00;84.11;101708.31;5137001;27;20027;-40
2021/05/27 07:42:57;;;;;;;15.18;7.18;;;;;;;9.99;84.12;101714.72;5136899;27;20109;-41
2021/05/27 07:45:22;;;;;;;15.32;7.45;;;;;;;9.95;85.18;101715.34;5136866;27;20065;-41
2021/05/27 07:47:48;;;;;;;18.20;7.00;;;;;;;9.97;85.00;101721.38;5137153;27;20030;-40
2021/05/27 07:50:14;;;;;;;14.80;6.57;;;;;;;9.98;84.08;101723.88;5136824;27;20110;-41
2021/05/27 07:52:39;;;;;;;11.23;5.93;;;;;;;10.00;84.20;101729.06;5136681;27;20023;-39
2021/05/27 07:55:06;;;;;;;13.13;5.77;;;;;;;9.93;84.17;101715.56;5137557;27;20113;-40
2021/05/27 07:57:31;;;;;;;12.98;6.45;;;;;;;9.98;85.10;101723.88;5137110;27;20486;-40
2021/05/27 07:59:57;;;;;;;17.20;7.78;;;;;;;10.01;83.90;101728.88;5137014;27;20044;-41
2021/05/27 08:02:22;;;;;;;16.00;6.70;;;;;;;10.00;84.36;101729.06;5136807;27;20042;-40
2021/05/27 08:04:48;;;;;;;14.60;6.00;;;;;;;10.00;84.83;101729.06;5136529;27;20050;-40
2021/05/27 08:07:13;;;;;;;14.02;5.93;;;;;;;10.06;84.13;101729.09;5136152;27;20632;-41
2021/05/27 08:09:39;;;;;;;12.73;6.00;;;;;;;10.10;84.73;101734.06;5135408;27;20118;-41
2021/05/27 08:12:08;;;;;;;15.07;6.40;;;;;;;10.12;84.12;101734.72;5136431;27;20451;-41
2021/05/27 08:14:34;;;;;;;14.10;5.88;;;;;;;10.15;84.74;101736.97;5136558;27;20031;-40
2021/05/27 08:16:59;;;;;;;12.57;5.40;;;;;;;10.11;84.12;101735.75;5136641;27;20049;-40
2021/05/27 08:19:25;;;;;;;15.48;5.65;;;;;;;10.11;82.89;101743.88;5136288;27;20027;-40
2021/05/27 08:21:52;;;;;;;17.48;5.72;;;;;;;10.12;84.63;101745.53;5136981;27;20027;-40
2021/05/27 08:24:18;;;;;;;11.82;4.93;;;;;;;10.15;84.12;101754.06;5136196;27;20031;-40
2021/05/27 08:26:43;;;;;;;11.25;4.88;;;;;;;10.18;83.93;101753.63;5136136;27;20031;-40
2021/05/27 08:29:08;;;;;;;11.50;4.97;;;;;;;10.16;83.86;101757.59;5135804;27;20027;-41
2021/05/27 08:31:38;;;;;;;11.57;4.40;;;;;;;10.16;83.06;101761.13;5134916;27;20110;-41
2021/05/27 08:34:04;;;;;;;16.40;4.90;;;;;;;10.11;83.15;101757.38;5136207;27;20035;-41
2021/05/27 08:36:29;;;;;;;12.43;4.87;;;;;;;10.12;82.28;101762.56;5136191;27;20142;-40
2021/05/27 08:38:54;;;;;;;11.50;5.10;;;;;;;10.12;83.30;101770.69;5135537;27;20535;-40
2021/05/27 08:41:20;;;;;;;14.37;5.27;;;;;;;10.13;83.08;101771.50;5136635;27;20455;-40
2021/05/27 08:43:49;;;;;;;15.30;4.67;;;;;;;10.13;83.78;101771.50;5134992;27;20102;-40
2021/05/27 08:46:15;;;;;;;12.32;5.28;;;;;;;10.17;83.20;101759.25;5135758;27;20245;-40
2021/05/27 08:48:42;;;;;;;14.20;5.20;;;;;;;10.20;84.34;101759.69;5135293;27;20023;-40
2021/05/27 08:51:08;;;;;;;11.48;5.30;;;;;;;10.29;83.93;101766.56;5135664;27;20035;-40
2021/05/27 08:53:34;;;;;;;11.95;5.00;;;;;;;10.36;83.87;101763.88;5135218;27;20059;-40
2021/05/27 08:55:59;;;;;;;11.17;4.23;;;;;;;10.41;83.24;101772.19;5135578;27;20058;-41
2021/05/27 08:58:24;;;;;;;8.60;3.90;;;;;;;10.39;81.30;101778.84;5135456;27;20074;-40
2021/05/27 09:00:50;;;;;;;12.37;4.43;;;;;;;10.38;81.48;101769.06;5136338;27;20043;-41
2021/05/27 09:03:18;;;;;;;10.53;4.10;;;;;;;10.38;81.90;101779.88;5135397;27;20811;-41
2021/05/27 09:05:44;;;;;;;14.35;4.88;;;;;;;10.37;81.82;101772.81;5135833;27;20299;-40
2021/05/27 09:08:27;;;;;;;9.32;3.80;;;;;;;10.40;81.30;101784.06;5135867;27;20035;-41
2021/05/27 09:10:55;;;;;;;14.80;4.20;;;;;;;10.40;81.60;101784.06;5135158;27;20117;-41
2021/05/27 09:13:21;;;;;;;11.32;4.60;;;;;;;10.38;81.96;101785.28;5135144;27;20035;-40
2021/05/27 09:15:49;;;;;;;10.95;3.92;;;;;;;10.41;81.64;101796.53;5135668;27;20019;-40
2021/05/27 09:18:34;;;;;;;8.90;4.00;;;;;;;10.51;82.63;101790.72;5135021;27;20030;-39
2021/05/27 09:21:00;;;;;;;12.32;4.63;;;;;;;10.51;83.20;101799.66;5134991;27;20019;-40
2021/05/27 09:23:26;;;;;;;14.13;4.10;;;;;;;10.56;82.81;101794.47;5134936;27;20360;-39
2021/05/27 09:26:08;;;;;;;8.30;3.90;;;;;;;10.66;82.30;101798.63;5135481;27;20056;-39
2021/05/27 09:28:34;;;;;;;15.88;5.85;;;;;;;10.78;83.03;101794.22;5134470;27;20020;-40
2021/05/27 09:31:03;;;;;;;9.77;4.10;;;;;;;10.91;82.92;101798.81;5135639;27;20080;-39
2021/05/27 09:33:40;;;;;;;11.57;4.80;;;;;;;11.04;81.88;101796.94;5135287;27;20455;-40
2021/05/27 09:36:16;;;;;;;16.88;5.32;;;;;;;11.21;83.07;101791.88;5134997;27;20473;-40
2021/05/27 09:38:42;;;;;;;13.95;4.80;;;;;;;11.33;81.33;101805.63;5134626;27;20033;-40
2021/05/27 09:41:15;;;;;;;11.27;3.92;;;;;;;11.32;81.54;101798.50;5134631;27;20031;-40
2021/05/27 09:43:41;;;;;;;9.77;3.90;;;;;;;11.28;80.79;101813.53;5134786;27;20409;-40
2021/05/27 09:46:07;;;;;;;9.05;4.15;;;;;;;11.24;80.63;101806.88;5134553;27;20027;-40
2021/05/27 09:48:34;;;;;;;9.33;3.70;;;;;;;11.22;80.62;101817.06;5134181;27;20075;-40
2021/05/27 09:51:01;;;;;;;8.45;4.60;;;;;;;11.31;81.53;101808.50;5135004;27;20025;-40
2021/05/27 09:53:28;;;;;;;16.08;4.88;;;;;;;11.41;80.69;101818.91;5134478;27;20023;-40
2021/05/27 09:55:58;;;;;;;11.48;3.92;;;;;;;11.51;80.00;101818.47;5134135;27;20528;-40
2021/05/27 09:58:24;;;;;;;9.75;3.85;;;;;;;11.60;79.89;101823.44;5134426;27;20050;-40
2021/05/27 10:00:51;;;;;;;9.52;4.20;;;;;;;11.67;80.80;101823.41;5134964;27;20050;-40
2021/05/27 10:03:31;;;;;;;10.93;4.28;;;;;;;11.66;80.51;101823.63;5135141;27;20050;-40
2021/05/27 10:05:59;;;;;;;9.55;4.18;;;;;;;11.53;79.81;101819.09;5134572;27;20031;-39
2021/05/27 10:08:25;;;;;;;12.02;4.30;;;;;;;11.43;79.15;101813.28;5134275;27;20084;-40
2021/05/27 10:10:52;;;;;;;9.95;4.18;;;;;;;11.35;78.67;101828.72;5134458;27;20027;-40
2021/05/27 10:13:23;;;;;;;8.10;3.83;;;;;;;11.30;79.82;101833.09;5134116;28;20023;-40
2021/05/27 10:15:49;;;;;;;8.77;3.72;;;;;;;11.25;79.85;101838.31;5134183;28;20114;-40
2021/05/27 10:18:16;;;;;;;9.93;3.77;;;;;;;11.18;79.07;101835.63;5133841;28;20055;-40
2021/05/27 10:20:42;;;;;;;11.75;4.65;;;;;;;11.13;79.11;101835.44;5133862;28;20027;-40
2021/05/27 10:23:07;;;;;;;9.37;4.20;;;;;;;11.08;79.03;101846.91;5134310;28;20019;-40
2021/05/27 10:25:33;;;;;;;8.97;4.20;;;;;;;11.05;79.20;101855.41;5133791;28;20249;-39
2021/05/27 10:28:02;;;;;;;12.90;4.17;;;;;;;11.05;79.57;101850.00;5134259;28;20280;-40
2021/05/27 10:30:28;;;;;;;8.57;4.28;;;;;;;11.08;80.19;101852.31;5133967;28;20019;-40
2021/05/27 10:33:02;;;;;;;10.88;4.82;;;;;;;11.08;79.36;101849.59;5133987;28;20031;-40
2021/05/27 10:35:46;;;;;;;12.15;4.03;;;;;;;11.03;79.06;101854.81;5134799;28;20038;-40
2021/05/27 10:38:11;;;;;;;9.13;3.67;;;;;;;11.00;79.52;101854.38;5134131;27;20476;-40
2021/05/27 10:40:38;;;;;;;14.25;4.20;;;;;;;10.95;77.59;101855.00;5133929;28;20045;-40
2021/05/27 10:43:13;;;;;;;;;;;;;;;11.03;77.57;101857.53;5134353;28;20072;-40
2021/05/27 10:45:57;;;;;;;13.65;4.15;;;;;;;10.91;77.54;101855.63;5134469;28;19908;-40
2021/05/27 10:48:29;;;;;;;10.50;3.80;;;;;;;10.89;77.95;101855.84;5133488;28;20471;-40
2021/05/27 10:51:01;;;;;;;9.75;3.95;;;;;;;10.86;78.09;101858.97;5134113;27;20027;-40
2021/05/27 10:53:33;;;;;;;12.95;4.55;;;;;;;10.89;77.79;101866.69;5134694;27;20067;-40
2021/05/27 10:56:01;;;;;;;10.32;4.18;;;;;;;10.90;77.66;101862.94;5137307;27;20043;-39
2021/05/27 10:58:45;;;;;;;15.02;4.88;;;;;;;10.96;77.86;101867.50;5137637;27;20031;-40
2021/05/27 11:01:12;;;;;;;12.65;4.57;;;;;;;10.98;77.71;101872.69;5138189;27;20043;-40
2021/05/27 11:03:52;;;;;;;14.52;4.05;;;;;;;11.06;77.25;101869.78;5137908;27;20359;-40
2021/05/27 11:06:25;;;;;;;12.05;4.13;;;;;;;11.17;76.95;101861.03;5137799;27;20027;-39
2021/05/27 11:11:41;;;;;;;9.60;4.50;;;;;;;11.34;76.50;101873.09;5137529;27;20446;-40
2021/05/27 11:14:20;;;;;;;10.05;3.80;;;;;;;11.39;76.74;101877.88;5137368;27;20443;-40
2021/05/27 11:17:04;;;;;;;10.82;4.00;;;;;;;11.45;76.71;101874.31;5137892;27;20031;-40
2021/05/27 11:22:28;;;;;;;15.27;4.80;;;;;;;11.64;75.66;101871.78;5137297;27;20391;-40
2021/05/27 11:25:12;;;;;;;9.98;4.18;;;;;;;11.79;76.10;101867.75;5137631;27;20058;-40
2021/05/27 11:27:43;;;;;;;12.73;4.57;;;;;;;11.87;75.85;101879.44;5136716;27;20141;-40
2021/05/27 11:30:36;;;;;;;13.93;4.20;;;;;;;11.89;75.76;101875.47;5137017;27;20034;-40
2021/05/27 11:33:12;;;;;;;11.13;4.70;;;;;;;11.75;74.95;101879.22;5137025;27;20046;-40
2021/05/27 11:35:37;;;;;;;15.73;4.70;;;;;;;11.65;75.04;101884.28;5137010;27;20027;-40
2021/05/27 11:38:06;;;;;;;11.80;4.70;;;;;;;11.60;75.14;101885.72;5137528;27;20067;-40